createdAt,value
2016-02-09T00:00:07.239Z,8.71
2016-02-09T00:01:07.178Z,8.87
2016-02-09T00:02:07.198Z,8.88
2016-02-09T00:03:07.170Z,8.89
2016-02-09T00:04:07.187Z,8.97
2016-02-09T00:05:07.175Z,8.92
2016-02-09T00:06:07.209Z,8.91
2016-02-09T00:07:07.180Z,8.99
2016-02-09T00:08:07.168Z,8.87
2016-02-09T00:09:07.218Z,8.91
2016-02-09T00:10:07.157Z,8.87
2016-02-09T00:11:07.160Z,8.87
2016-02-09T00:12:07.210Z,8.85
2016-02-09T00:13:07.151Z,8.73
2016-02-09T00:14:07.183Z,8.84
2016-02-09T00:15:07.171Z,8.82
2016-02-09T00:16:07.173Z,8.69
2016-02-09T00:17:07.161Z,8.84
2016-02-09T00:18:07.164Z,8.87
2016-02-09T00:19:07.167Z,8.88
2016-02-09T00:20:07.154Z,8.95
2016-02-09T00:21:07.157Z,8.84
2016-02-09T00:22:07.221Z,8.84
2016-02-09T00:23:07.154Z,8.79
2016-02-09T00:24:07.157Z,8.71
2016-02-09T00:25:07.191Z,8.67
2016-02-09T00:26:07.162Z,8.7
2016-02-09T00:27:07.165Z,8.73
2016-02-09T00:28:07.171Z,8.85
2016-02-09T00:29:07.157Z,8.7
2016-02-09T00:30:07.176Z,8.71
2016-02-09T00:31:07.195Z,8.67
2016-02-09T00:32:07.165Z,8.67
2016-02-09T00:33:07.168Z,8.69
2016-02-09T00:34:07.170Z,8.58
2016-02-09T00:35:07.206Z,8.55
2016-02-09T00:36:07.161Z,8.58
2016-02-09T00:37:07.164Z,8.52
2016-02-09T00:38:07.244Z,8.56
2016-02-09T00:39:07.231Z,8.61
2016-02-09T00:40:07.187Z,8.6
2016-02-09T00:41:07.192Z,8.6
2016-02-09T00:42:07.180Z,8.55
2016-02-09T00:43:07.183Z,8.55
2016-02-09T00:44:07.200Z,8.53
2016-02-09T00:45:07.189Z,8.55
2016-02-09T00:46:07.175Z,8.6
2016-02-09T00:47:07.162Z,8.56
2016-02-09T00:48:07.182Z,8.51
2016-02-09T00:49:07.154Z,8.49
2016-02-09T00:50:07.172Z,8.51
2016-02-09T00:51:07.190Z,8.38
2016-02-09T00:52:07.162Z,8.45
2016-02-09T00:53:07.171Z,8.46
2016-02-09T00:54:07.190Z,8.41
2016-02-09T00:55:07.192Z,8.38
2016-02-09T00:56:07.180Z,8.41
2016-02-09T00:57:07.167Z,8.36
2016-02-09T00:58:07.200Z,8.27
2016-02-09T00:59:07.188Z,8.27
2016-02-09T01:00:07.205Z,8.37
2016-02-09T01:01:07.161Z,8.41
2016-02-09T01:02:07.163Z,8.38
2016-02-09T01:03:07.167Z,8.31
2016-02-09T01:04:07.171Z,8.3
2016-02-09T01:05:07.189Z,8.3
2016-02-09T01:06:07.207Z,8.27
2016-02-09T01:07:07.195Z,8.38
2016-02-09T01:08:07.197Z,8.42
2016-02-09T01:09:07.184Z,8.51
2016-02-09T01:10:07.187Z,8.52
2016-02-09T01:11:07.174Z,8.58
2016-02-09T01:12:07.192Z,8.52
2016-02-09T01:13:07.194Z,8.56
2016-02-09T01:14:07.183Z,8.52
2016-02-09T01:15:07.185Z,8.52
2016-02-09T01:16:07.202Z,8.49
2016-02-09T01:17:07.192Z,8.53
2016-02-09T01:18:07.162Z,8.52
2016-02-09T01:19:07.212Z,8.48
2016-02-09T01:20:07.167Z,8.52
2016-02-09T01:21:07.202Z,8.52
2016-02-09T01:22:07.252Z,8.53
2016-02-09T01:23:07.191Z,8.48
2016-02-09T01:24:07.241Z,8.42
2016-02-09T01:25:07.181Z,8.45
2016-02-09T01:26:07.168Z,8.41
2016-02-09T01:27:07.156Z,8.42
2016-02-09T01:28:07.205Z,8.37
2016-02-09T01:29:07.160Z,8.41
2016-02-09T01:30:07.181Z,8.31
2016-02-09T01:31:07.246Z,8.26
2016-02-09T01:32:07.202Z,8.24
2016-02-09T01:33:07.189Z,8.24
2016-02-09T01:34:07.207Z,8.2
2016-02-09T01:35:07.195Z,8.16
2016-02-09T01:36:07.182Z,8.1
2016-02-09T01:37:07.215Z,7.94
2016-02-09T01:38:07.187Z,8
2016-02-09T01:39:07.176Z,8
2016-02-09T01:40:07.162Z,7.91
2016-02-09T01:41:07.196Z,7.93
2016-02-09T01:42:07.183Z,8
2016-02-09T01:43:07.186Z,7.94
2016-02-09T01:44:07.158Z,7.91
2016-02-09T01:45:07.224Z,7.95
2016-02-09T01:46:07.226Z,7.94
2016-02-09T01:47:07.183Z,7.91
2016-02-09T01:48:07.248Z,7.91
2016-02-09T01:49:07.220Z,7.85
2016-02-09T01:50:07.160Z,7.94
2016-02-09T01:51:07.162Z,7.8
2016-02-09T01:52:07.183Z,7.95
2016-02-09T01:53:07.187Z,7.88
2016-02-09T01:54:07.205Z,7.83
2016-02-09T01:55:07.229Z,7.91
2016-02-09T01:56:07.059Z,7.93
2016-02-09T01:57:07.218Z,7.94
2016-02-09T01:58:07.206Z,7.91
2016-02-09T01:59:07.192Z,7.98
2016-02-09T02:00:07.166Z,8
2016-02-09T02:01:07.216Z,8.03
2016-02-09T02:02:07.218Z,7.94
2016-02-09T02:03:07.237Z,7.98
2016-02-09T02:04:07.177Z,7.98
2016-02-09T02:05:07.196Z,7.98
2016-02-09T02:06:07.182Z,7.95
2016-02-09T02:07:07.216Z,7.93
2016-02-09T02:08:07.219Z,8
2016-02-09T02:09:07.159Z,8
2016-02-09T02:10:07.177Z,8
2016-02-09T02:11:07.180Z,7.9
2016-02-09T02:12:07.261Z,7.97
2016-02-09T02:13:07.218Z,7.97
2016-02-09T02:14:07.174Z,7.94
2016-02-09T02:15:07.193Z,8.03
2016-02-09T02:16:07.242Z,7.9
2016-02-09T02:17:07.198Z,7.91
2016-02-09T02:18:07.232Z,7.98
2016-02-09T02:19:07.239Z,7.94
2016-02-09T02:20:07.226Z,7.98
2016-02-09T02:21:07.182Z,8.03
2016-02-09T02:22:07.201Z,8.01
2016-02-09T02:23:07.157Z,8.05
2016-02-09T02:24:07.191Z,7.97
2016-02-09T02:25:07.158Z,8.03
2016-02-09T02:26:07.161Z,8.05
2016-02-09T02:27:07.179Z,8.24
2016-02-09T02:28:07.152Z,8.26
2016-02-09T02:29:07.171Z,8.27
2016-02-09T02:30:07.190Z,8.33
2016-02-09T02:31:07.193Z,8.26
2016-02-09T02:32:07.196Z,8.36
2016-02-09T02:33:07.183Z,8.42
2016-02-09T02:34:07.169Z,8.37
2016-02-09T02:35:07.156Z,8.33
2016-02-09T02:36:07.174Z,8.33
2016-02-09T02:37:07.240Z,8.28
2016-02-09T02:38:07.164Z,8.3
2016-02-09T02:39:07.182Z,8.37
2016-02-09T02:40:07.185Z,8.3
2016-02-09T02:41:07.158Z,8.37
2016-02-09T02:42:07.177Z,8.44
2016-02-09T02:43:07.164Z,8.37
2016-02-09T02:44:07.244Z,8.44
2016-02-09T02:45:07.169Z,8.46
2016-02-09T02:46:07.266Z,8.45
2016-02-09T02:47:07.191Z,8.36
2016-02-09T02:48:07.208Z,8.38
2016-02-09T02:49:07.229Z,8.38
2016-02-09T02:50:07.185Z,8.42
2016-02-09T02:51:07.171Z,8.52
2016-02-09T02:52:07.174Z,8.49
2016-02-09T02:53:07.179Z,8.51
2016-02-09T02:54:07.228Z,8.53
2016-02-09T02:55:07.185Z,8.45
2016-02-09T02:56:07.172Z,8.48
2016-02-09T02:57:07.190Z,8.45
2016-02-09T02:58:07.239Z,8.53
2016-02-09T02:59:07.195Z,8.41
2016-02-09T03:00:07.229Z,8.46
2016-02-09T03:01:07.279Z,8.49
2016-02-09T03:02:07.188Z,8.51
2016-02-09T03:03:07.302Z,8.46
2016-02-09T03:04:07.102Z,8.49
2016-02-09T03:05:07.214Z,8.37
2016-02-09T03:06:07.216Z,8.41
2016-02-09T03:07:07.185Z,8.45
2016-02-09T03:08:07.172Z,8.42
2016-02-09T03:09:07.190Z,8.41
2016-02-09T03:10:07.177Z,8.41
2016-02-09T03:11:07.181Z,8.38
2016-02-09T03:12:07.199Z,8.36
2016-02-09T03:13:07.030Z,8.41
2016-02-09T03:14:07.174Z,8.3
2016-02-09T03:15:07.177Z,8.28
2016-02-09T03:16:07.179Z,8.38
2016-02-09T03:17:07.198Z,8.34
2016-02-09T03:18:07.170Z,8.44
2016-02-09T03:19:07.251Z,8.34
2016-02-09T03:20:07.192Z,8.36
2016-02-09T03:21:07.226Z,8.27
2016-02-09T03:22:07.247Z,8.42
2016-02-09T03:23:07.187Z,8.42
2016-02-09T03:24:07.221Z,8.45
2016-02-09T03:25:07.193Z,8.42
2016-02-09T03:26:07.180Z,8.38
2016-02-09T03:27:07.199Z,8.44
2016-02-09T03:28:07.249Z,8.41
2016-02-09T03:29:07.221Z,8.41
2016-02-09T03:30:07.223Z,8.41
2016-02-09T03:31:07.194Z,8.42
2016-02-09T03:32:07.181Z,8.48
2016-02-09T03:33:07.246Z,8.48
2016-02-09T03:34:07.218Z,8.45
2016-02-09T03:35:07.190Z,8.41
2016-02-09T03:36:07.254Z,8.41
2016-02-09T03:37:07.226Z,8.38
2016-02-09T03:38:07.213Z,8.41
2016-02-09T03:39:07.264Z,8.37
2016-02-09T03:40:07.189Z,8.41
2016-02-09T03:41:07.223Z,8.36
2016-02-09T03:42:07.194Z,8.41
2016-02-09T03:43:07.197Z,8.3
2016-02-09T03:44:07.185Z,8.34
2016-02-09T03:45:07.203Z,8.38
2016-02-09T03:46:07.237Z,8.41
2016-02-09T03:47:07.228Z,8.38
2016-02-09T03:48:07.215Z,8.36
2016-02-09T03:49:07.202Z,8.44
2016-02-09T03:50:07.207Z,8.42
2016-02-09T03:51:07.226Z,8.37
2016-02-09T03:52:07.198Z,8.3
2016-02-09T03:53:07.201Z,8.23
2016-02-09T03:54:07.187Z,8.33
2016-02-09T03:55:07.268Z,8.28
2016-02-09T03:56:07.208Z,8.33
2016-02-09T03:57:07.226Z,8.3
2016-02-09T03:58:07.182Z,8.26
2016-02-09T03:59:07.184Z,8.15
2016-02-09T04:00:07.207Z,8.1
2016-02-09T04:01:07.195Z,8.2
2016-02-09T04:02:07.228Z,8.16
2016-02-09T04:03:07.200Z,8.03
2016-02-09T04:04:07.233Z,8.05
2016-02-09T04:05:07.205Z,8.08
2016-02-09T04:06:07.192Z,8.08
2016-02-09T04:07:07.226Z,8.03
2016-02-09T04:08:07.213Z,7.95
2016-02-09T04:09:07.203Z,8.03
2016-02-09T04:10:07.221Z,7.95
2016-02-09T04:11:07.176Z,8
2016-02-09T04:12:07.195Z,7.97
2016-02-09T04:13:07.197Z,7.91
2016-02-09T04:14:07.204Z,8
2016-02-09T04:15:07.207Z,7.94
2016-02-09T04:16:07.224Z,7.93
2016-02-09T04:17:07.196Z,8
2016-02-09T04:18:07.184Z,7.83
2016-02-09T04:19:07.218Z,7.95
2016-02-09T04:20:07.204Z,7.94
2016-02-09T04:21:07.224Z,7.85
2016-02-09T04:22:07.289Z,7.93
2016-02-09T04:23:07.183Z,7.82
2016-02-09T04:24:07.201Z,7.83
2016-02-09T04:25:07.219Z,7.79
2016-02-09T04:26:07.285Z,7.7
2016-02-09T04:27:07.271Z,7.8
2016-02-09T04:28:07.214Z,7.7
2016-02-09T04:29:07.232Z,7.72
2016-02-09T04:30:07.251Z,7.72
2016-02-09T04:31:07.237Z,7.7
2016-02-09T04:32:07.209Z,7.7
2016-02-09T04:33:07.212Z,7.66
2016-02-09T04:34:07.199Z,7.66
2016-02-09T04:35:07.233Z,7.73
2016-02-09T04:36:07.236Z,7.73
2016-02-09T04:37:07.208Z,7.72
2016-02-09T04:38:07.196Z,7.67
2016-02-09T04:39:07.213Z,7.76
2016-02-09T04:40:07.201Z,7.73
2016-02-09T04:41:07.219Z,7.77
2016-02-09T04:42:07.221Z,7.7
2016-02-09T04:43:07.177Z,7.7
2016-02-09T04:44:07.180Z,7.7
2016-02-09T04:45:07.199Z,7.73
2016-02-09T04:46:07.186Z,7.73
2016-02-09T04:47:07.205Z,7.73
2016-02-09T04:48:07.207Z,7.66
2016-02-09T04:49:07.194Z,7.72
2016-02-09T04:50:07.183Z,7.73
2016-02-09T04:51:07.172Z,7.54
2016-02-09T04:52:07.175Z,7.63
2016-02-09T04:53:07.178Z,7.56
2016-02-09T04:54:07.211Z,7.63
2016-02-09T04:55:07.183Z,7.57
2016-02-09T04:56:07.186Z,7.57
2016-02-09T04:57:07.173Z,7.6
2016-02-09T04:58:07.223Z,7.69
2016-02-09T04:59:07.211Z,7.58
2016-02-09T05:00:07.214Z,7.56
2016-02-09T05:01:07.247Z,7.58
2016-02-09T05:02:07.203Z,7.58
2016-02-09T05:03:07.206Z,7.57
2016-02-09T05:04:07.210Z,7.51
2016-02-09T05:05:07.181Z,7.43
2016-02-09T05:06:07.215Z,7.48
2016-02-09T05:07:07.326Z,7.48
2016-02-09T05:08:07.220Z,7.48
2016-02-09T05:09:07.192Z,7.36
2016-02-09T05:10:07.226Z,7.4
2016-02-09T05:11:07.182Z,7.39
2016-02-09T05:12:07.185Z,7.38
2016-02-09T05:13:07.203Z,7.39
2016-02-09T05:14:07.222Z,7.36
2016-02-09T05:15:07.193Z,7.35
2016-02-09T05:16:07.179Z,7.31
2016-02-09T05:17:07.276Z,7.33
2016-02-09T05:18:07.217Z,7.36
2016-02-09T05:19:07.517Z,7.39
2016-02-09T05:20:07.206Z,7.33
2016-02-09T05:21:07.178Z,7.33
2016-02-09T05:22:07.152Z,7.36
2016-02-09T05:23:07.206Z,7.35
2016-02-09T05:24:07.224Z,7.32
2016-02-09T05:25:07.180Z,7.31
2016-02-09T05:26:07.182Z,7.25
2016-02-09T05:27:07.216Z,7.29
2016-02-09T05:28:07.235Z,7.33
2016-02-09T05:29:07.207Z,7.33
2016-02-09T05:30:07.287Z,7.32
2016-02-09T05:31:07.162Z,7.25
2016-02-09T05:32:07.164Z,7.29
2016-02-09T05:33:07.185Z,7.32
2016-02-09T05:34:07.156Z,7.32
2016-02-09T05:35:07.190Z,7.33
2016-02-09T05:36:07.192Z,7.38
2016-02-09T05:37:07.180Z,7.4
2016-02-09T05:38:07.167Z,7.43
2016-02-09T05:39:07.169Z,7.42
2016-02-09T05:40:07.188Z,7.42
2016-02-09T05:41:07.160Z,7.43
2016-02-09T05:42:07.163Z,7.5
2016-02-09T05:43:07.165Z,7.48
2016-02-09T05:44:07.152Z,7.45
2016-02-09T05:45:07.170Z,7.56
2016-02-09T05:46:07.173Z,7.43
2016-02-09T05:47:07.147Z,7.48
2016-02-09T05:48:07.165Z,7.42
2016-02-09T05:49:07.198Z,7.5
2016-02-09T05:50:07.170Z,7.51
2016-02-09T05:51:07.172Z,7.63
2016-02-09T05:52:07.223Z,7.6
2016-02-09T05:53:07.211Z,7.57
2016-02-09T05:54:07.198Z,7.6
2016-02-09T05:55:07.169Z,7.6
2016-02-09T05:56:07.141Z,7.6
2016-02-09T05:57:07.191Z,7.56
2016-02-09T05:58:07.209Z,7.63
2016-02-09T05:59:07.165Z,7.56
2016-02-09T06:00:07.168Z,7.73
2016-02-09T06:01:07.172Z,7.69
2016-02-09T06:02:07.174Z,7.73
2016-02-09T06:03:07.192Z,7.73
2016-02-09T06:04:07.226Z,7.72
2016-02-09T06:05:07.183Z,7.76
2016-02-09T06:06:07.153Z,7.79
2016-02-09T06:07:07.208Z,7.72
2016-02-09T06:08:07.148Z,7.73
2016-02-09T06:09:07.152Z,7.87
2016-02-09T06:10:07.155Z,7.83
2016-02-09T06:11:07.173Z,7.88
2016-02-09T06:12:07.191Z,7.9
2016-02-09T06:13:07.209Z,7.88
2016-02-09T06:14:07.229Z,7.93
2016-02-09T06:15:07.138Z,7.91
2016-02-09T06:16:07.188Z,7.98
2016-02-09T06:17:07.243Z,7.91
2016-02-09T06:18:07.152Z,7.88
2016-02-09T06:19:07.140Z,7.91
2016-02-09T06:20:07.158Z,7.94
2016-02-09T06:21:07.144Z,7.9
2016-02-09T06:22:07.187Z,7.93
2016-02-09T06:23:07.174Z,7.83
2016-02-09T06:24:07.193Z,7.85
2016-02-09T06:25:07.163Z,7.85
2016-02-09T06:26:07.213Z,7.93
2016-02-09T06:27:07.204Z,7.95
2016-02-09T06:28:07.145Z,7.76
2016-02-09T06:29:07.132Z,7.83
2016-02-09T06:30:07.167Z,7.87
2016-02-09T06:31:07.139Z,7.93
2016-02-09T06:32:07.205Z,7.94
2016-02-09T06:33:07.145Z,7.82
2016-02-09T06:34:07.148Z,7.94
2016-02-09T06:35:07.181Z,7.91
2016-02-09T06:36:07.185Z,7.85
2016-02-09T06:37:07.142Z,7.94
2016-02-09T06:38:07.159Z,7.94
2016-02-09T06:39:07.161Z,7.85
2016-02-09T06:40:07.150Z,7.83
2016-02-09T06:41:07.136Z,7.95
2016-02-09T06:42:07.201Z,7.83
2016-02-09T06:43:07.126Z,7.97
2016-02-09T06:44:07.161Z,7.94
2016-02-09T06:45:07.164Z,7.83
2016-02-09T06:46:07.182Z,7.93
2016-02-09T06:47:07.169Z,7.94
2016-02-09T06:48:07.156Z,7.97
2016-02-09T06:49:07.190Z,7.93
2016-02-09T06:50:07.133Z,7.93
2016-02-09T06:51:07.246Z,7.97
2016-02-09T06:52:07.248Z,8
2016-02-09T06:53:07.161Z,7.91
2016-02-09T06:54:07.133Z,7.9
2016-02-09T06:55:07.136Z,7.97
2016-02-09T06:56:07.170Z,7.95
2016-02-09T06:57:07.189Z,7.91
2016-02-09T06:58:07.178Z,7.88
2016-02-09T06:59:07.211Z,7.94
2016-02-09T07:00:07.200Z,7.94
2016-02-09T07:01:07.186Z,7.93
2016-02-09T07:02:07.205Z,7.94
2016-02-09T07:03:07.129Z,7.93
2016-02-09T07:04:07.116Z,7.93
2016-02-09T07:05:07.172Z,7.93
2016-02-09T07:06:07.142Z,7.93
2016-02-09T07:07:07.115Z,7.93
2016-02-09T07:08:07.180Z,7.88
2016-02-09T07:09:07.183Z,8
2016-02-09T07:10:07.122Z,7.91
2016-02-09T07:11:07.188Z,8.01
2016-02-09T07:12:07.178Z,8.01
2016-02-09T07:13:07.135Z,8.1
2016-02-09T07:14:07.137Z,8.1
2016-02-09T07:15:07.139Z,8.09
2016-02-09T07:16:07.206Z,8
2016-02-09T07:17:07.176Z,8.01
2016-02-09T07:18:07.132Z,8.01
2016-02-09T07:19:07.151Z,7.98
2016-02-09T07:20:06.997Z,8.18
2016-02-09T07:21:07.140Z,8.19
2016-02-09T07:22:07.159Z,8.19
2016-02-09T07:23:07.161Z,8.16
2016-02-09T07:24:07.164Z,8.23
2016-02-09T07:25:07.188Z,8.28
2016-02-09T07:26:07.111Z,8.41
2016-02-09T07:27:07.146Z,8.42
2016-02-09T07:28:07.102Z,8.41
2016-02-09T07:29:07.135Z,8.38
2016-02-09T07:30:07.138Z,8.38
2016-02-09T07:31:07.141Z,8.38
2016-02-09T07:32:07.159Z,8.41
2016-02-09T07:33:07.162Z,8.49
2016-02-09T07:34:07.166Z,8.52
2016-02-09T07:35:07.028Z,8.61
2016-02-09T07:36:07.155Z,8.52
2016-02-09T07:37:07.392Z,8.58
2016-02-09T07:38:07.177Z,8.56
2016-02-09T07:39:07.227Z,8.58
2016-02-09T07:40:07.167Z,8.58
2016-02-09T07:41:07.122Z,8.64
2016-02-09T07:42:07.126Z,8.7
2016-02-09T07:43:07.145Z,8.71
2016-02-09T07:44:07.148Z,8.79
2016-02-09T07:45:07.119Z,8.89
2016-02-09T07:46:06.418Z,8.87
2016-02-09T07:47:07.159Z,8.95
2016-02-09T07:48:07.208Z,8.87
2016-02-09T07:49:07.212Z,8.91
2016-02-09T07:50:07.135Z,8.89
2016-02-09T07:51:07.153Z,8.84
2016-02-09T07:52:07.140Z,8.88
2016-02-09T07:53:07.036Z,8.89
2016-02-09T07:54:07.132Z,8.87
2016-02-09T07:55:07.119Z,8.92
2016-02-09T07:56:07.171Z,8.82
2016-02-09T07:57:07.157Z,8.94
2016-02-09T07:58:07.146Z,9.02
2016-02-09T07:59:07.163Z,8.97
2016-02-09T08:00:07.134Z,9
2016-02-09T08:01:07.140Z,8.99
2016-02-09T08:02:07.173Z,9.02
2016-02-09T08:03:07.145Z,9.02
2016-02-09T08:04:07.164Z,9.06
2016-02-09T08:05:07.198Z,9.11
2016-02-09T08:06:07.170Z,9.13
2016-02-09T08:07:07.234Z,9.1
2016-02-09T08:08:07.175Z,9.08
2016-02-09T08:09:07.164Z,9.18
2016-02-09T08:10:07.213Z,9.14
2016-02-09T08:11:07.216Z,9.16
2016-02-09T08:12:07.188Z,9.19
2016-02-09T08:13:07.237Z,9.21
2016-02-09T08:14:07.161Z,9.18
2016-02-09T08:15:07.184Z,9.16
2016-02-09T08:16:07.170Z,9.19
2016-02-09T08:17:07.159Z,9.19
2016-02-09T08:18:07.196Z,9.21
2016-02-09T08:19:07.151Z,9.13
2016-02-09T08:20:07.202Z,9.23
2016-02-09T08:21:07.204Z,9.14
2016-02-09T08:22:07.210Z,9.21
2016-02-09T08:23:07.199Z,9.16
2016-02-09T08:24:07.170Z,9.18
2016-02-09T08:25:07.234Z,9.16
2016-02-09T08:26:07.160Z,9.14
2016-02-09T08:27:07.287Z,9.16
2016-02-09T08:28:10.259Z,9.1
2016-02-09T08:29:07.215Z,9.18
2016-02-09T08:30:07.170Z,9.16
2016-02-09T08:31:07.240Z,9.21
2016-02-09T08:32:07.211Z,9.11
2016-02-09T08:33:07.230Z,9.21
2016-02-09T08:34:07.185Z,9.19
2016-02-09T08:35:07.234Z,9.16
2016-02-09T08:36:07.191Z,9.14
2016-02-09T08:37:07.177Z,9.06
2016-02-09T08:38:07.211Z,9.13
2016-02-09T08:39:07.230Z,9.1
2016-02-09T08:40:07.199Z,9.1
2016-02-09T08:41:07.158Z,9.1
2016-02-09T08:42:07.148Z,9.14
2016-02-09T08:43:07.152Z,9.16
2016-02-09T08:44:07.128Z,9.13
2016-02-09T08:45:07.121Z,9.11
2016-02-09T08:46:07.103Z,9.22
2016-02-09T08:47:07.149Z,9.18
2016-02-09T08:48:07.146Z,9.18
2016-02-09T08:49:07.176Z,9.25
2016-02-09T08:50:07.161Z,9.31
2016-02-09T08:51:07.100Z,9.28
2016-02-09T08:52:07.131Z,9.32
2016-02-09T08:53:07.119Z,9.28
2016-02-09T08:54:07.088Z,9.39
2016-02-09T08:55:07.153Z,9.39
2016-02-09T08:56:07.108Z,9.4
2016-02-09T08:57:07.110Z,9.37
2016-02-09T08:58:07.097Z,9.39
2016-02-09T08:59:07.118Z,9.5
2016-02-09T09:00:07.152Z,9.4
2016-02-09T09:01:07.107Z,9.55
2016-02-09T09:02:07.109Z,9.54
2016-02-09T09:03:07.112Z,9.55
2016-02-09T09:04:07.146Z,9.55
2016-02-09T09:05:07.163Z,9.55
2016-02-09T09:06:07.119Z,9.61
2016-02-09T09:07:07.122Z,9.62
2016-02-09T09:08:07.125Z,9.61
2016-02-09T09:09:07.112Z,9.59
2016-02-09T09:10:07.116Z,9.65
2016-02-09T09:11:07.134Z,9.66
2016-02-09T09:12:07.121Z,9.76
2016-02-09T09:13:07.139Z,9.79
2016-02-09T09:14:07.143Z,9.74
2016-02-09T09:15:07.116Z,9.73
2016-02-09T09:16:07.118Z,9.76
2016-02-09T09:17:07.137Z,9.83
2016-02-09T09:18:07.161Z,9.89
2016-02-09T09:19:07.132Z,9.92
2016-02-09T09:20:07.153Z,9.82
2016-02-09T09:21:07.140Z,9.95
2016-02-09T09:22:07.159Z,9.89
2016-02-09T09:23:07.130Z,9.95
2016-02-09T09:24:07.132Z,9.99
2016-02-09T09:25:07.167Z,9.92
2016-02-09T09:26:07.138Z,10.01
2016-02-09T09:27:07.157Z,9.95
2016-02-09T09:28:07.143Z,10.01
2016-02-09T09:29:07.148Z,9.95
2016-02-09T09:30:07.167Z,9.94
2016-02-09T09:31:07.153Z,9.86
2016-02-09T09:32:07.187Z,9.83
2016-02-09T09:33:07.175Z,9.89
2016-02-09T09:34:07.162Z,9.87
2016-02-09T09:35:07.166Z,9.91
2016-02-09T09:36:07.184Z,9.87
2016-02-09T09:37:07.217Z,9.86
2016-02-09T09:38:07.174Z,9.84
2016-02-09T09:39:07.192Z,9.92
2016-02-09T09:40:07.194Z,9.91
2016-02-09T09:41:07.181Z,9.86
2016-02-09T09:42:07.200Z,9.83
2016-02-09T09:43:07.204Z,9.77
2016-02-09T09:44:07.190Z,9.79
2016-02-09T09:45:07.209Z,9.84
2016-02-09T09:46:07.180Z,9.77
2016-02-09T09:47:07.198Z,9.86
2016-02-09T09:48:07.024Z,9.8
2016-02-09T09:49:07.183Z,9.83
2016-02-09T09:50:07.060Z,9.82
2016-02-09T09:51:07.188Z,9.77
2016-02-09T09:52:07.191Z,9.82
2016-02-09T09:53:07.194Z,9.8
2016-02-09T09:54:07.211Z,9.77
2016-02-09T09:55:07.199Z,9.87
2016-02-09T09:56:07.187Z,9.83
2016-02-09T09:57:07.220Z,9.86
2016-02-09T09:58:07.209Z,9.84
2016-02-09T09:59:07.211Z,9.87
2016-02-09T10:00:07.213Z,9.89
2016-02-09T10:01:07.216Z,9.94
2016-02-09T10:02:07.219Z,10.04
2016-02-09T10:03:07.205Z,9.82
2016-02-09T10:04:07.208Z,9.87
2016-02-09T10:05:07.211Z,9.94
2016-02-09T10:06:07.214Z,9.89
2016-02-09T10:07:07.232Z,9.87
2016-02-09T10:08:07.219Z,9.83
2016-02-09T10:09:07.238Z,9.84
2016-02-09T10:10:07.224Z,9.84
2016-02-09T10:11:07.211Z,9.89
2016-02-09T10:12:07.230Z,9.92
2016-02-09T10:13:07.232Z,9.82
2016-02-09T10:14:07.219Z,9.83
2016-02-09T10:15:07.253Z,9.8
2016-02-09T10:16:07.241Z,9.83
2016-02-09T10:17:07.227Z,9.86
2016-02-09T10:18:07.090Z,9.86
2016-02-09T10:19:07.233Z,9.84
2016-02-09T10:20:07.240Z,9.89
2016-02-09T10:21:07.242Z,9.83
2016-02-09T10:22:07.276Z,9.91
2016-02-09T10:23:07.232Z,9.86
2016-02-09T10:24:07.250Z,9.99
2016-02-09T10:25:07.253Z,9.98
2016-02-09T10:26:07.255Z,9.98
2016-02-09T10:27:07.243Z,10.04
2016-02-09T10:28:07.246Z,9.98
2016-02-09T10:29:07.267Z,9.94
2016-02-09T10:30:07.239Z,10.09
2016-02-09T10:31:07.242Z,10.17
2016-02-09T10:32:07.245Z,10.19
2016-02-09T10:33:07.263Z,10.09
2016-02-09T10:34:07.266Z,10.12
2016-02-09T10:35:07.253Z,10.09
2016-02-09T10:36:07.239Z,10.2
2016-02-09T10:37:07.258Z,10.16
2016-02-09T10:38:07.245Z,10.26
2016-02-09T10:39:07.264Z,10.15
2016-02-09T10:40:07.282Z,10.3
2016-02-09T10:41:07.268Z,10.25
2016-02-09T10:42:07.272Z,10.33
2016-02-09T10:43:07.274Z,10.33
2016-02-09T10:44:07.292Z,10.44
2016-02-09T10:45:07.296Z,10.4
2016-02-09T10:46:07.268Z,10.44
2016-02-09T10:47:07.318Z,10.54
2016-02-09T10:48:07.290Z,10.56
2016-02-09T10:49:07.292Z,10.6
2016-02-09T10:50:07.295Z,10.63
2016-02-09T10:51:07.277Z,10.71
2016-02-09T10:52:07.279Z,10.75
2016-02-09T10:53:07.314Z,10.76
2016-02-09T10:54:07.285Z,10.74
2016-02-09T10:55:07.319Z,10.78
2016-02-09T10:56:07.306Z,10.72
2016-02-09T10:57:07.325Z,10.79
2016-02-09T10:58:07.311Z,10.82
2016-02-09T10:59:07.314Z,10.81
2016-02-09T11:00:07.348Z,10.82
2016-02-09T11:01:07.304Z,10.87
2016-02-09T11:02:07.167Z,10.86
2016-02-09T11:03:07.326Z,10.97
2016-02-09T11:04:07.313Z,11.02
2016-02-09T11:05:07.331Z,11.04
2016-02-09T11:06:07.334Z,11.05
2016-02-09T11:07:07.321Z,11.08
2016-02-09T11:08:07.356Z,11.3
2016-02-09T11:09:07.343Z,11.32
2016-02-09T11:10:07.333Z,11.36
2016-02-09T11:11:07.352Z,11.5
2016-02-09T11:12:07.355Z,11.4
2016-02-09T11:13:07.327Z,11.47
2016-02-09T11:14:07.375Z,11.6
2016-02-09T11:15:07.348Z,11.63
2016-02-09T11:16:07.350Z,11.57
2016-02-09T11:17:07.399Z,11.63
2016-02-09T11:18:07.356Z,11.63
2016-02-09T11:19:07.377Z,11.66
2016-02-09T11:20:07.380Z,11.66
2016-02-09T11:21:07.352Z,11.65
2016-02-09T11:22:07.372Z,11.72
2016-02-09T11:23:07.375Z,11.62
2016-02-09T11:24:07.377Z,11.59
2016-02-09T11:25:07.428Z,11.68
2016-02-09T11:26:07.399Z,11.73
2016-02-09T11:27:07.386Z,11.81
2016-02-09T11:28:07.372Z,11.87
2016-02-09T11:29:07.375Z,11.94
2016-02-09T11:30:07.426Z,11.9
2016-02-09T11:31:07.383Z,11.94
2016-02-09T11:32:07.401Z,11.97
2016-02-09T11:33:07.420Z,12.13
2016-02-09T11:34:07.390Z,12.18
2016-02-09T11:35:07.393Z,12.22
2016-02-09T11:36:07.428Z,12.25
2016-02-09T11:37:07.430Z,12.27
2016-02-09T11:38:07.419Z,12.35
2016-02-09T11:39:07.406Z,12.27
2016-02-09T11:40:07.503Z,12.37
2016-02-09T11:41:07.458Z,12.43
2016-02-09T11:42:07.508Z,12.46
2016-02-09T11:43:07.527Z,12.49
2016-02-09T11:44:07.561Z,12.54
2016-02-09T11:45:07.438Z,12.6
2016-02-09T11:46:07.444Z,12.6
2016-02-09T11:47:07.508Z,12.67
2016-02-09T11:48:07.465Z,12.65
2016-02-09T11:49:07.468Z,12.78
2016-02-09T11:50:07.438Z,12.78
2016-02-09T11:51:07.463Z,12.83
2016-02-09T11:52:07.466Z,12.8
2016-02-09T11:53:07.500Z,12.83
2016-02-09T11:54:07.459Z,12.85
2016-02-09T11:55:07.556Z,12.8
2016-02-09T11:56:07.496Z,12.93
2016-02-09T11:57:07.498Z,13
2016-02-09T11:58:07.517Z,13
2016-02-09T11:59:07.520Z,13.01
2016-02-09T12:00:07.507Z,13.05
2016-02-09T12:01:07.556Z,13.15
2016-02-09T12:02:07.497Z,13.08
2016-02-09T12:03:07.534Z,13.13
2016-02-09T12:04:07.567Z,13.11
2016-02-09T12:05:07.526Z,13.13
2016-02-09T12:06:07.576Z,13.19
2016-02-09T12:07:07.563Z,13.19
2016-02-09T12:08:07.519Z,13.23
2016-02-09T12:09:07.553Z,13.2
2016-02-09T12:10:07.556Z,13.27
2016-02-09T12:11:07.530Z,13.12
2016-02-09T12:12:07.532Z,13.18
2016-02-09T12:13:07.551Z,13.18
2016-02-09T12:14:07.554Z,13.22
2016-02-09T12:15:07.572Z,13.25
2016-02-09T12:16:07.559Z,13.3
2016-02-09T12:17:07.546Z,13.35
2016-02-09T12:18:07.581Z,13.41
2016-02-09T12:19:07.567Z,13.37
2016-02-09T12:20:07.570Z,13.37
2016-02-09T12:21:07.641Z,13.35
2016-02-09T12:22:07.597Z,13.41
2016-02-09T12:23:07.600Z,13.41
2016-02-09T12:24:07.587Z,13.42
2016-02-09T12:25:07.605Z,13.39
2016-02-09T12:26:07.639Z,13.3
2016-02-09T12:27:07.598Z,13.27
2016-02-09T12:28:07.601Z,13.23
2016-02-09T12:29:07.650Z,13.27
2016-02-09T12:30:07.610Z,13.16
2016-02-09T12:31:07.628Z,13.19
2016-02-09T12:32:07.615Z,13.18
2016-02-09T12:33:07.618Z,13.12
2016-02-09T12:34:07.606Z,13
2016-02-09T12:35:07.624Z,13.04
2016-02-09T12:36:07.626Z,12.98
2016-02-09T12:37:07.614Z,13
2016-02-09T12:38:07.616Z,13
2016-02-09T12:39:07.650Z,13.04
2016-02-09T12:40:07.918Z,12.93
2016-02-09T12:41:07.624Z,12.98
2016-02-09T12:42:07.674Z,12.98
2016-02-09T12:43:07.707Z,13.04
2016-02-09T12:44:07.679Z,12.97
2016-02-09T12:45:07.682Z,12.95
2016-02-09T12:46:07.497Z,12.94
2016-02-09T12:47:07.657Z,12.95
2016-02-09T12:48:07.706Z,12.83
2016-02-09T12:49:07.771Z,12.79
2016-02-09T12:50:07.668Z,12.73
2016-02-09T12:51:07.669Z,12.68
2016-02-09T12:52:07.687Z,12.68
2016-02-09T12:53:07.674Z,12.62
2016-02-09T12:54:07.692Z,12.68
2016-02-09T12:55:07.681Z,12.65
2016-02-09T12:56:07.684Z,12.57
2016-02-09T12:57:07.701Z,12.5
2016-02-09T12:58:07.689Z,12.53
2016-02-09T12:59:07.691Z,12.42
2016-02-09T13:00:07.709Z,12.36
2016-02-09T13:01:07.728Z,12.27
2016-02-09T13:02:07.714Z,12.31
2016-02-09T13:03:07.718Z,12.24
2016-02-09T13:04:07.721Z,12.17
2016-02-09T13:05:07.740Z,12.17
2016-02-09T13:06:07.773Z,12.12
2016-02-09T13:07:07.729Z,12.04
2016-02-09T13:08:07.717Z,12.15
2016-02-09T13:09:07.734Z,11.97
2016-02-09T13:10:07.815Z,12
2016-02-09T13:11:07.740Z,11.94
2016-02-09T13:12:07.727Z,11.87
2016-02-09T13:13:07.901Z,11.9
2016-02-09T13:14:07.779Z,11.86
2016-02-09T13:15:07.844Z,11.8
2016-02-09T13:16:07.831Z,11.68
2016-02-09T13:17:07.631Z,11.59